Time;durP1;ratioP1;P1;durP2;ratioP2;P2;SDS_P1;SDS_P2;PMS_P1;PMS_P2;Temp;Humidity;BMP_temperature;BMP_pressure;BME280_temperature;BME280_humidity;BME280_pressure;Samples;Min_cycle;Max_cycle;Signal;HPM_P1;HPM_P2
2022/12/02 00:01:20;;;;;;;65.40;29.87;;;2.60;99.90;;;;;;5095983;28;20039;-83
2022/12/02 00:03:47;;;;;;;59.57;31.37;;;2.50;99.90;;;;;;5094824;28;20024;-83
2022/12/02 00:06:30;;;;;;;59.47;31.27;;;2.60;99.90;;;;;;5094287;28;20028;-83
2022/12/02 00:09:05;;;;;;;56.33;30.07;;;2.50;99.90;;;;;;5095703;28;20369;-83
2022/12/02 00:11:31;;;;;;;68.70;33.47;;;2.50;99.90;;;;;;5095777;28;20039;-83
2022/12/02 00:14:00;;;;;;;57.03;29.57;;;2.50;99.90;;;;;;5094125;28;20024;-83
2022/12/02 00:16:26;;;;;;;62.37;30.90;;;2.50;99.90;;;;;;5095541;28;20028;-82
2022/12/02 00:18:53;;;;;;;57.10;31.00;;;2.50;99.90;;;;;;5095478;28;20461;-83
2022/12/02 00:21:20;;;;;;;58.87;30.30;;;2.50;99.90;;;;;;5095299;28;20024;-83
2022/12/02 00:23:46;;;;;;;55.60;29.33;;;2.50;99.90;;;;;;5095509;28;20020;-82
2022/12/02 00:26:12;;;;;;;62.67;30.63;;;2.50;99.90;;;;;;5095534;28;20370;-83
2022/12/02 00:28:37;;;;;;;66.60;31.63;;;2.50;99.90;;;;;;5095866;28;20016;-83
2022/12/02 00:31:03;;;;;;;59.20;29.97;;;2.50;99.90;;;;;;5095386;28;20111;-83
2022/12/02 00:33:29;;;;;;;59.87;30.33;;;2.50;99.90;;;;;;5095413;28;20028;-83
2022/12/02 00:35:54;;;;;;;59.37;29.83;;;2.50;99.90;;;;;;5095124;28;20030;-83
2022/12/02 00:38:20;;;;;;;60.70;30.17;;;2.50;99.90;;;;;;5095611;28;20028;-82
2022/12/02 00:40:45;;;;;;;61.43;31.27;;;2.50;99.90;;;;;;5095769;28;20020;-82
2022/12/02 00:48:39;;;;;;;63.10;30.17;;;2.50;99.90;;;;;;5095297;28;20388;-83
2022/12/02 00:51:05;;;;;;;61.10;32.20;;;2.50;99.90;;;;;;5094666;28;20020;-82
2022/12/02 00:53:31;;;;;;;65.57;33.27;;;2.50;99.90;;;;;;5095222;28;20518;-83
2022/12/02 00:55:56;;;;;;;60.87;32.20;;;2.50;99.90;;;;;;5094658;28;20397;-83
2022/12/02 00:58:22;;;;;;;66.63;32.20;;;2.50;99.90;;;;;;5094809;28;20099;-82
2022/12/02 01:00:48;;;;;;;61.17;31.37;;;2.50;99.90;;;;;;5094647;28;20032;-83
2022/12/02 01:03:14;;;;;;;64.73;30.70;;;2.50;99.90;;;;;;5094656;28;20024;-83
2022/12/02 01:05:40;;;;;;;68.00;33.07;;;2.50;99.90;;;;;;5094758;28;20028;-83
2022/12/02 01:08:05;;;;;;;64.23;31.27;;;2.50;99.90;;;;;;5094479;28;20095;-83
2022/12/02 01:10:31;;;;;;;61.97;30.23;;;2.40;99.90;;;;;;5094898;28;20043;-82
2022/12/02 01:12:56;;;;;;;71.17;33.43;;;2.50;99.90;;;;;;5094609;28;20089;-83
2022/12/02 01:15:22;;;;;;;64.00;31.90;;;2.40;99.90;;;;;;5094382;28;20017;-83
2022/12/02 01:17:50;;;;;;;67.33;32.43;;;2.50;99.90;;;;;;5094212;28;20040;-83
2022/12/02 01:20:15;;;;;;;65.63;32.20;;;2.50;99.90;;;;;;5094971;28;20093;-83
2022/12/02 01:22:41;;;;;;;65.90;33.33;;;2.50;99.90;;;;;;5094256;28;20465;-83
2022/12/02 01:25:07;;;;;;;68.87;32.87;;;2.40;99.90;;;;;;5094244;28;20380;-83
2022/12/02 01:27:32;;;;;;;65.77;32.43;;;2.50;99.90;;;;;;5094189;28;20047;-83
2022/12/02 01:29:58;;;;;;;69.57;33.23;;;2.50;99.90;;;;;;5094444;28;20082;-83
2022/12/02 01:32:24;;;;;;;71.40;33.97;;;2.40;99.90;;;;;;5094317;28;20024;-83
2022/12/02 01:34:49;;;;;;;64.30;32.40;;;2.50;99.90;;;;;;5094319;28;20515;-83
2022/12/02 01:37:16;;;;;;;68.77;33.77;;;2.50;99.90;;;;;;5094174;28;20035;-83
2022/12/02 01:39:41;;;;;;;67.63;33.07;;;2.40;99.90;;;;;;5093836;28;20020;-83
2022/12/02 01:42:08;;;;;;;70.43;34.27;;;2.50;99.90;;;;;;5094242;28;20411;-83
2022/12/02 01:44:35;;;;;;;70.07;35.20;;;2.50;99.90;;;;;;5094125;28;20398;-83
2022/12/02 01:47:01;;;;;;;71.07;33.30;;;2.50;99.90;;;;;;5093867;28;20059;-84
2022/12/02 01:49:27;;;;;;;65.70;32.23;;;2.50;99.90;;;;;;5093867;28;20051;-83
2022/12/02 01:51:53;;;;;;;65.93;32.27;;;2.50;99.90;;;;;;5094074;28;20350;-83
2022/12/02 01:54:18;;;;;;;69.53;33.10;;;2.50;99.90;;;;;;5093800;28;20023;-83
2022/12/02 01:56:44;;;;;;;64.70;31.97;;;2.50;99.90;;;;;;5093700;28;20028;-83
2022/12/02 01:59:12;;;;;;;64.63;33.23;;;2.50;99.90;;;;;;5093555;28;20020;-83
2022/12/02 02:01:39;;;;;;;67.37;34.67;;;2.50;99.90;;;;;;5093785;28;20031;-83
2022/12/02 02:04:05;;;;;;;62.47;31.57;;;2.50;99.90;;;;;;5093879;28;20073;-83
2022/12/02 02:06:36;;;;;;;65.00;33.87;;;2.50;99.90;;;;;;5093456;28;20103;-83
2022/12/02 02:09:02;;;;;;;67.10;34.03;;;2.50;99.90;;;;;;5091379;28;20107;-84
2022/12/02 02:11:28;;;;;;;70.83;34.23;;;2.50;99.90;;;;;;5091005;28;20050;-84
2022/12/02 02:13:55;;;;;;;69.43;32.93;;;2.50;99.90;;;;;;5090942;28;20020;-84
2022/12/02 02:16:20;;;;;;;74.03;34.23;;;2.50;99.90;;;;;;5090827;28;20059;-84
2022/12/02 02:18:46;;;;;;;74.40;33.57;;;2.50;99.90;;;;;;5090546;28;20040;-84
2022/12/02 02:21:18;;;;;;;72.87;35.67;;;2.50;99.90;;;;;;5090940;28;20027;-84
2022/12/02 02:23:44;;;;;;;66.33;33.20;;;2.50;99.90;;;;;;5090802;28;20031;-84
2022/12/02 02:26:10;;;;;;;68.47;34.73;;;2.50;99.90;;;;;;5090342;28;20028;-84
2022/12/02 02:28:35;;;;;;;75.27;34.17;;;2.50;99.90;;;;;;5090702;28;20032;-84
2022/12/02 02:31:01;;;;;;;73.80;33.23;;;2.50;99.90;;;;;;5090920;28;20066;-84
2022/12/02 02:33:30;;;;;;;74.03;34.00;;;2.50;99.90;;;;;;5090551;28;20036;-84
2022/12/02 02:35:56;;;;;;;72.93;34.70;;;2.50;99.90;;;;;;5090756;28;20040;-83
2022/12/02 02:38:24;;;;;;;73.90;34.93;;;2.50;99.90;;;;;;5090788;28;20039;-83
2022/12/02 02:40:51;;;;;;;70.20;33.87;;;2.50;99.90;;;;;;5090195;28;20483;-81
2022/12/02 02:43:19;;;;;;;70.90;34.20;;;2.50;99.90;;;;;;5090360;28;20027;-81
2022/12/02 02:45:45;;;;;;;71.07;34.57;;;2.50;99.90;;;;;;5090379;28;20094;-81
2022/12/02 02:48:13;;;;;;;76.27;35.23;;;2.50;99.90;;;;;;5090239;28;20020;-81
2022/12/02 02:50:41;;;;;;;73.87;34.77;;;2.50;99.90;;;;;;5090067;28;20085;-81
2022/12/02 02:53:07;;;;;;;77.20;35.80;;;2.40;99.90;;;;;;5090237;28;20050;-81
2022/12/02 02:55:33;;;;;;;78.07;37.27;;;2.40;99.90;;;;;;5090299;28;20024;-81
2022/12/02 02:58:14;;;;;;;81.00;36.77;;;2.40;99.90;;;;;;5089982;28;20032;-81
2022/12/02 03:00:44;;;;;;;81.77;36.17;;;2.40;99.90;;;;;;5089979;28;20085;-81
2022/12/02 03:03:12;;;;;;;82.90;37.63;;;2.40;99.90;;;;;;5089932;28;20032;-81
2022/12/02 03:05:38;;;;;;;77.87;35.40;;;2.40;99.90;;;;;;5090128;28;20016;-81
2022/12/02 03:08:04;;;;;;;80.77;37.43;;;2.40;99.90;;;;;;5089909;28;20032;-81
2022/12/02 03:10:30;;;;;;;77.67;35.90;;;2.40;99.90;;;;;;5089896;28;20036;-81
2022/12/02 03:12:56;;;;;;;73.20;34.73;;;2.40;99.90;;;;;;5089952;28;20069;-81
2022/12/02 03:15:24;;;;;;;77.27;36.67;;;2.40;99.90;;;;;;5089945;28;20100;-81
2022/12/02 03:17:50;;;;;;;70.63;34.27;;;2.40;99.90;;;;;;5089769;28;20070;-81
2022/12/02 03:20:16;;;;;;;78.53;35.80;;;2.40;99.90;;;;;;5089769;28;20074;-81
2022/12/02 03:22:42;;;;;;;75.77;36.17;;;2.40;99.90;;;;;;5089686;28;20488;-81
2022/12/02 03:25:09;;;;;;;78.00;35.37;;;2.40;99.90;;;;;;5089901;28;20071;-81
2022/12/02 03:27:35;;;;;;;73.40;33.77;;;2.40;99.90;;;;;;5089787;28;20027;-81
2022/12/02 03:30:00;;;;;;;69.87;34.43;;;2.40;99.90;;;;;;5089949;28;20024;-81
2022/12/02 03:32:26;;;;;;;68.77;33.33;;;2.40;99.90;;;;;;5089701;28;20385;-81
2022/12/02 03:34:52;;;;;;;70.33;34.20;;;2.40;99.90;;;;;;5089715;28;20103;-81
2022/12/02 03:37:18;;;;;;;72.17;34.47;;;2.40;99.90;;;;;;5090211;28;20469;-81
2022/12/02 03:39:44;;;;;;;75.30;34.23;;;2.40;99.90;;;;;;5093597;28;20085;-81
2022/12/02 03:42:10;;;;;;;67.17;33.90;;;2.40;99.90;;;;;;5093694;28;20028;-81
2022/12/02 03:44:36;;;;;;;78.70;34.07;;;2.40;99.90;;;;;;5093070;28;20530;-81
2022/12/02 03:47:02;;;;;;;70.30;34.30;;;2.40;99.90;;;;;;5093248;28;20024;-81
2022/12/02 03:49:30;;;;;;;72.93;35.03;;;2.40;99.90;;;;;;5093912;28;20028;-83
2022/12/02 03:51:56;;;;;;;69.30;33.90;;;2.40;99.90;;;;;;5096387;28;20016;-83
2022/12/02 03:54:21;;;;;;;69.97;33.20;;;2.30;99.90;;;;;;5096245;28;20499;-83
2022/12/02 03:56:47;;;;;;;70.53;33.10;;;2.30;99.90;;;;;;5095989;28;20107;-83
2022/12/02 03:59:20;;;;;;;76.10;36.17;;;2.40;99.90;;;;;;5095826;28;20097;-83
2022/12/02 04:01:45;;;;;;;77.57;35.40;;;2.30;99.90;;;;;;5096191;28;20043;-83
2022/12/02 04:04:11;;;;;;;78.40;36.53;;;2.30;99.90;;;;;;5094513;28;20024;-83
2022/12/02 04:06:36;;;;;;;74.97;35.23;;;2.30;99.90;;;;;;5096001;28;20062;-83
2022/12/02 04:09:02;;;;;;;74.03;35.33;;;2.30;99.90;;;;;;5096191;28;20031;-83
2022/12/02 04:11:28;;;;;;;78.87;35.73;;;2.30;99.90;;;;;;5095653;28;20490;-83
2022/12/02 04:13:53;;;;;;;71.47;34.43;;;2.30;99.90;;;;;;5095919;28;20032;-83
2022/12/02 04:16:19;;;;;;;74.13;35.33;;;2.30;99.90;;;;;;5096074;28;20115;-83
2022/12/02 04:18:44;;;;;;;75.73;35.23;;;2.30;99.90;;;;;;5095199;28;20047;-83
2022/12/02 04:21:10;;;;;;;73.93;33.43;;;2.30;99.90;;;;;;5095949;28;20020;-83
2022/12/02 04:23:35;;;;;;;71.57;34.30;;;2.30;99.90;;;;;;5095678;28;20107;-83
2022/12/02 04:26:01;;;;;;;68.87;31.93;;;2.30;99.90;;;;;;5095631;28;20016;-83
2022/12/02 04:28:27;;;;;;;77.90;35.20;;;2.30;99.90;;;;;;5095628;28;20028;-83
2022/12/02 04:30:52;;;;;;;73.70;34.13;;;2.30;99.90;;;;;;5095689;28;20019;-83
2022/12/02 04:33:18;;;;;;;69.80;33.57;;;2.30;99.90;;;;;;5095309;28;20037;-83
2022/12/02 04:35:44;;;;;;;69.93;33.53;;;2.30;99.90;;;;;;5095439;28;20108;-83
2022/12/02 04:38:09;;;;;;;71.40;32.13;;;2.30;99.90;;;;;;5095127;28;20036;-83
2022/12/02 04:40:35;;;;;;;72.73;33.60;;;2.30;99.90;;;;;;5095331;28;20050;-83
2022/12/02 04:43:00;;;;;;;76.10;34.23;;;2.30;99.90;;;;;;5095108;28;20419;-84
2022/12/02 04:45:26;;;;;;;72.97;34.63;;;2.30;99.90;;;;;;5095791;28;20357;-83
2022/12/02 04:47:51;;;;;;;71.57;32.63;;;2.30;99.90;;;;;;5095253;28;20095;-83
2022/12/02 04:50:17;;;;;;;79.53;33.13;;;2.30;99.90;;;;;;5093561;28;20386;-83
2022/12/02 04:52:43;;;;;;;75.10;35.00;;;2.30;99.90;;;;;;5095212;28;20099;-83
2022/12/02 04:55:08;;;;;;;75.10;35.03;;;2.30;99.90;;;;;;5095520;28;20020;-83
2022/12/02 04:57:34;;;;;;;70.57;34.27;;;2.30;99.90;;;;;;5095823;28;20027;-83
2022/12/02 04:59:59;;;;;;;76.23;35.37;;;2.30;99.90;;;;;;5094829;28;20398;-83
2022/12/02 05:02:25;;;;;;;76.73;35.13;;;2.30;99.90;;;;;;5095143;28;20020;-83
2022/12/02 05:04:50;;;;;;;76.40;34.70;;;2.30;99.90;;;;;;5094777;28;20024;-83
2022/12/02 05:07:16;;;;;;;78.03;35.87;;;2.30;99.90;;;;;;5094813;28;20029;-83
2022/12/02 05:09:42;;;;;;;75.03;33.27;;;2.30;99.90;;;;;;5093456;28;20034;-82
2022/12/02 05:12:07;;;;;;;72.13;33.70;;;2.30;99.90;;;;;;5094888;28;20059;-82
2022/12/02 05:14:33;;;;;;;79.07;35.83;;;2.30;99.90;;;;;;5094848;28;20024;-83
2022/12/02 05:16:58;;;;;;;80.00;35.10;;;2.30;99.90;;;;;;5094465;28;20040;-83
2022/12/02 05:19:24;;;;;;;77.43;35.77;;;2.30;99.90;;;;;;5095082;28;20380;-83
2022/12/02 05:21:50;;;;;;;80.40;35.60;;;2.30;99.90;;;;;;5095643;28;20054;-83
2022/12/02 05:24:16;;;;;;;80.60;36.57;;;2.30;99.90;;;;;;5094628;28;20035;-83
2022/12/02 05:26:41;;;;;;;79.50;33.67;;;2.30;99.90;;;;;;5094314;28;20353;-82
2022/12/02 05:29:07;;;;;;;73.63;34.03;;;2.30;99.90;;;;;;5094197;28;20035;-80
2022/12/02 05:31:33;;;;;;;79.23;35.57;;;2.30;99.90;;;;;;5094813;28;20391;-80
2022/12/02 05:33:58;;;;;;;81.77;35.77;;;2.30;99.90;;;;;;5094149;28;20039;-80
2022/12/02 05:36:24;;;;;;;78.33;36.47;;;2.30;99.90;;;;;;5094794;28;20024;-80
2022/12/02 05:38:49;;;;;;;76.27;35.73;;;2.30;99.90;;;;;;5114389;28;20483;-80
2022/12/02 05:41:15;;;;;;;70.83;34.63;;;2.30;99.90;;;;;;5114776;28;20072;-80
2022/12/02 05:43:42;;;;;;;80.53;37.77;;;2.30;99.90;;;;;;5114370;28;20030;-79
2022/12/02 05:46:19;;;;;;;74.17;33.37;;;2.30;99.90;;;;;;5114331;28;20098;-79
2022/12/02 05:48:47;;;;;;;82.10;34.70;;;2.30;99.90;;;;;;5114088;28;20388;-80
2022/12/02 05:51:15;;;;;;;77.27;35.70;;;2.30;99.90;;;;;;5114260;28;20030;-80
2022/12/02 05:53:42;;;;;;;75.17;34.60;;;2.30;99.90;;;;;;5114197;28;20034;-80
2022/12/02 05:56:17;;;;;;;77.23;35.60;;;2.30;99.90;;;;;;5113957;28;20050;-80
2022/12/02 05:58:42;;;;;;;73.60;33.83;;;2.30;99.90;;;;;;5113618;28;20063;-80
2022/12/02 06:01:41;;;;;;;78.63;35.73;;;2.30;99.90;;;;;;5112464;28;20112;-80
2022/12/02 06:04:28;;;;;;;78.17;35.03;;;2.30;99.90;;;;;;5062687;28;20078;-80
2022/12/02 06:06:58;;;;;;;74.27;33.97;;;2.30;99.90;;;;;;5084032;28;20016;-80
2022/12/02 06:09:27;;;;;;;77.47;35.23;;;2.30;99.90;;;;;;5073318;28;20093;-80
2022/12/02 06:11:53;;;;;;;77.83;34.60;;;2.30;99.90;;;;;;5073851;28;20443;-80
2022/12/02 06:14:22;;;;;;;77.67;34.97;;;2.30;99.90;;;;;;5073620;28;20169;-79
2022/12/02 06:16:57;;;;;;;72.13;33.70;;;2.30;99.90;;;;;;5073230;28;20052;-80
2022/12/02 06:19:30;;;;;;;76.93;34.93;;;2.30;99.90;;;;;;5073200;28;20020;-80
2022/12/02 06:21:59;;;;;;;74.37;35.13;;;2.30;99.90;;;;;;5073401;28;20076;-80
2022/12/02 06:24:29;;;;;;;74.63;34.40;;;2.30;99.90;;;;;;5079897;28;20030;-80
2022/12/02 06:27:00;;;;;;;73.53;34.43;;;2.30;99.90;;;;;;5106399;28;20039;-80
2022/12/02 06:29:28;;;;;;;76.07;35.63;;;2.30;99.90;;;;;;5093337;28;20027;-80
2022/12/02 06:31:54;;;;;;;75.63;36.33;;;2.30;99.90;;;;;;5093451;28;20028;-80
2022/12/02 06:34:25;;;;;;;80.33;34.73;;;2.30;99.90;;;;;;5093214;28;20032;-80
2022/12/02 06:36:51;;;;;;;81.30;35.27;;;2.30;99.90;;;;;;5093196;28;20035;-80
2022/12/02 06:39:21;;;;;;;76.80;35.40;;;2.40;99.90;;;;;;5092972;28;20514;-80
2022/12/02 06:41:48;;;;;;;78.50;35.77;;;2.30;99.90;;;;;;5093238;28;20134;-80
2022/12/02 06:47:31;;;;;;;75.63;33.77;;;2.40;99.90;;;;;;5092962;28;20482;-80
2022/12/02 06:50:21;;;;;;;75.67;32.97;;;2.40;99.90;;;;;;5073006;28;20028;-80
2022/12/02 06:52:46;;;;;;;77.73;35.13;;;2.40;99.90;;;;;;5069557;28;20071;-80
2022/12/02 06:55:47;;;;;;;79.33;35.67;;;2.40;99.90;;;;;;5093005;28;20063;-81
2022/12/02 06:58:25;;;;;;;76.80;34.60;;;2.40;99.90;;;;;;5089947;28;20040;-78
2022/12/02 07:00:51;;;;;;;80.10;34.87;;;2.40;99.90;;;;;;5093172;28;20476;-79
2022/12/02 07:03:39;;;;;;;88.67;37.43;;;2.40;99.90;;;;;;5093207;28;20020;-78
2022/12/02 07:06:14;;;;;;;75.83;33.10;;;2.40;99.90;;;;;;5092963;28;20047;-79
2022/12/02 07:08:39;;;;;;;69.00;31.90;;;2.40;99.90;;;;;;5093319;28;20036;-78
2022/12/02 07:11:50;;;;;;;72.07;33.73;;;2.40;99.90;;;;;;5093338;28;20028;-78
2022/12/02 07:14:43;;;;;;;72.07;29.83;;;2.40;99.90;;;;;;5081840;28;20465;-78
2022/12/02 07:17:23;;;;;;;74.50;30.17;;;2.40;99.90;;;;;;5097042;28;20052;-79
2022/12/02 07:20:23;;;;;;;64.67;30.50;;;2.40;99.90;;;;;;5096620;28;20032;-79
2022/12/02 07:22:55;;;;;;;71.43;32.03;;;2.40;99.90;;;;;;5072855;28;20037;-80
2022/12/02 07:25:36;;;;;;;72.87;32.67;;;2.50;99.90;;;;;;5076599;28;20059;-79
2022/12/02 07:28:28;;;;;;;76.83;33.83;;;2.50;99.90;;;;;;5076578;28;20024;-79
2022/12/02 07:31:18;;;;;;;68.97;31.03;;;2.50;99.90;;;;;;5088608;28;20028;-79
2022/12/02 07:33:44;;;;;;;72.70;32.37;;;2.50;99.90;;;;;;5096632;28;20024;-79
2022/12/02 07:36:10;;;;;;;70.10;31.87;;;2.50;99.90;;;;;;5096393;28;20081;-79
2022/12/02 07:38:36;;;;;;;66.20;29.50;;;2.50;99.90;;;;;;5096404;28;20024;-79
2022/12/02 07:41:02;;;;;;;66.70;31.63;;;2.50;99.90;;;;;;5096522;28;20017;-79
2022/12/02 07:43:28;;;;;;;63.73;30.40;;;2.50;99.90;;;;;;5096686;28;20024;-80
2022/12/02 07:45:53;;;;;;;64.90;30.70;;;2.50;99.90;;;;;;5096321;28;20031;-80
2022/12/02 07:48:19;;;;;;;67.10;30.87;;;2.50;99.90;;;;;;5089636;28;20023;-79
2022/12/02 07:50:44;;;;;;;67.87;31.83;;;2.50;99.90;;;;;;5076477;28;20123;-79
2022/12/02 07:53:10;;;;;;;66.43;32.47;;;2.50;99.90;;;;;;5076381;28;20091;-80
2022/12/02 07:55:35;;;;;;;70.07;32.40;;;2.50;99.90;;;;;;5076177;28;20028;-79
2022/12/02 07:58:01;;;;;;;68.03;32.63;;;2.50;99.90;;;;;;5076297;28;20031;-80
2022/12/02 08:00:27;;;;;;;69.07;31.27;;;2.50;99.90;;;;;;5075711;28;20025;-79
2022/12/02 08:02:54;;;;;;;72.93;32.13;;;2.50;99.90;;;;;;5076645;28;20017;-79
2022/12/02 08:05:20;;;;;;;70.73;32.63;;;2.60;99.90;;;;;;5076123;28;20016;-79
2022/12/02 08:07:45;;;;;;;61.63;28.70;;;2.50;99.90;;;;;;5076050;28;20025;-80
2022/12/02 08:10:11;;;;;;;62.87;29.97;;;2.60;99.90;;;;;;5075993;28;20031;-80
2022/12/02 08:12:38;;;;;;;65.70;30.97;;;2.60;99.90;;;;;;5075645;28;20028;-81
2022/12/02 08:15:05;;;;;;;61.60;28.47;;;2.60;99.90;;;;;;5076162;28;20016;-81
2022/12/02 08:17:31;;;;;;;59.03;30.17;;;2.60;99.90;;;;;;5075603;28;20043;-81
2022/12/02 08:19:56;;;;;;;65.83;30.67;;;2.60;99.90;;;;;;5075626;28;20028;-81
2022/12/02 08:22:22;;;;;;;66.20;30.50;;;2.60;99.90;;;;;;5075892;28;20095;-81
2022/12/02 08:24:47;;;;;;;65.50;31.80;;;2.60;99.90;;;;;;5074679;28;20027;-81
2022/12/02 08:27:13;;;;;;;65.17;33.77;;;2.60;99.90;;;;;;5075743;28;20457;-80
2022/12/02 08:29:38;;;;;;;69.93;34.63;;;2.60;99.90;;;;;;5075767;28;20151;-80
2022/12/02 08:32:04;;;;;;;65.67;33.03;;;2.60;99.90;;;;;;5075534;28;20024;-81
2022/12/02 08:34:30;;;;;;;60.37;29.47;;;2.70;99.90;;;;;;5075449;28;20029;-81
2022/12/02 08:36:55;;;;;;;55.10;27.83;;;2.70;99.90;;;;;;5075664;28;20065;-81
2022/12/02 08:39:21;;;;;;;60.13;29.00;;;2.70;99.90;;;;;;5075114;28;20051;-80
2022/12/02 08:41:46;;;;;;;59.37;32.00;;;2.80;99.90;;;;;;5074130;28;20029;-81
2022/12/02 08:44:12;;;;;;;58.73;28.37;;;2.70;99.90;;;;;;5075389;28;20066;-80
2022/12/02 08:46:37;;;;;;;82.30;40.00;;;2.70;99.90;;;;;;5075078;28;20051;-80
2022/12/02 08:49:05;;;;;;;56.60;28.40;;;2.70;99.90;;;;;;5073687;28;20028;-81
2022/12/02 08:51:31;;;;;;;56.53;28.20;;;2.70;99.90;;;;;;5075576;28;20028;-80
2022/12/02 08:53:57;;;;;;;74.03;42.40;;;2.80;99.90;;;;;;5075179;28;20121;-81
2022/12/02 08:56:22;;;;;;;59.57;27.77;;;2.80;99.90;;;;;;5074834;28;20060;-81
2022/12/02 08:58:48;;;;;;;66.23;33.23;;;2.80;99.90;;;;;;5074653;28;20033;-80
2022/12/02 09:01:13;;;;;;;56.13;27.93;;;2.80;99.90;;;;;;5074856;28;20081;-80
2022/12/02 09:03:39;;;;;;;53.90;27.23;;;2.80;99.90;;;;;;5074800;28;20063;-81
2022/12/02 09:06:05;;;;;;;57.27;27.00;;;2.80;99.90;;;;;;5074673;28;20017;-81
2022/12/02 09:08:30;;;;;;;64.63;30.13;;;2.90;99.90;;;;;;5074646;28;20024;-81
2022/12/02 09:10:56;;;;;;;55.60;27.27;;;2.80;99.90;;;;;;5078745;28;20032;-81
2022/12/02 09:13:21;;;;;;;53.53;26.73;;;2.90;99.90;;;;;;5095025;28;20031;-81
2022/12/02 09:15:47;;;;;;;54.27;27.20;;;2.90;99.90;;;;;;5094825;28;20032;-80
2022/12/02 09:18:12;;;;;;;62.20;28.13;;;2.90;99.90;;;;;;5094732;28;20133;-81
2022/12/02 09:20:38;;;;;;;59.73;28.03;;;2.90;99.90;;;;;;5094709;28;20052;-81
2022/12/02 09:23:03;;;;;;;54.27;28.40;;;3.00;99.90;;;;;;5094871;28;20494;-80
2022/12/02 09:25:29;;;;;;;56.83;26.87;;;3.00;99.90;;;;;;5094478;28;20028;-80
2022/12/02 09:27:55;;;;;;;57.23;26.67;;;3.10;99.90;;;;;;5094851;28;20514;-81
2022/12/02 09:30:20;;;;;;;54.20;26.23;;;3.10;99.90;;;;;;5093099;28;20115;-81
2022/12/02 09:32:46;;;;;;;54.17;27.00;;;3.10;99.90;;;;;;5094376;28;20190;-80
2022/12/02 09:35:12;;;;;;;56.90;29.60;;;3.20;99.90;;;;;;5093392;28;20058;-80
2022/12/02 09:37:37;;;;;;;62.10;32.30;;;3.20;99.90;;;;;;5094343;28;20028;-80
2022/12/02 09:40:04;;;;;;;58.63;31.13;;;3.20;99.90;;;;;;5094739;28;20067;-80
2022/12/02 09:42:29;;;;;;;64.17;33.57;;;3.30;99.90;;;;;;5094268;28;20032;-79
2022/12/02 09:44:56;;;;;;;57.20;30.23;;;3.30;99.90;;;;;;5092839;28;20027;-78
2022/12/02 09:47:23;;;;;;;56.90;29.27;;;3.40;99.90;;;;;;5094210;28;20107;-79
2022/12/02 09:49:48;;;;;;;62.60;30.37;;;3.50;99.90;;;;;;5094361;28;20384;-79
2022/12/02 09:52:20;;;;;;;51.87;27.93;;;3.60;99.90;;;;;;5094078;28;20116;-79
2022/12/02 09:54:45;;;;;;;49.27;25.90;;;3.70;99.90;;;;;;5094620;28;20354;-79
2022/12/02 09:57:16;;;;;;;50.90;27.37;;;3.80;99.90;;;;;;5093955;28;20050;-79
2022/12/02 09:59:42;;;;;;;54.57;27.00;;;3.80;99.90;;;;;;5093782;28;20032;-79
2022/12/02 10:02:39;;;;;;;43.13;23.33;;;3.90;99.90;;;;;;5094083;28;20031;-79
2022/12/02 10:05:26;;;;;;;40.77;22.27;;;4.00;99.90;;;;;;5093771;28;20406;-79
2022/12/02 10:07:55;;;;;;;42.20;22.57;;;4.10;99.90;;;;;;5093807;28;20028;-79
2022/12/02 10:10:24;;;;;;;35.63;19.70;;;4.10;99.90;;;;;;5094002;28;20347;-79
2022/12/02 10:12:52;;;;;;;40.67;22.40;;;4.10;99.90;;;;;;5094309;28;20040;-78
2022/12/02 10:15:23;;;;;;;43.83;23.00;;;4.20;99.90;;;;;;5108419;28;20081;-78
2022/12/02 10:17:49;;;;;;;46.43;23.53;;;4.10;99.90;;;;;;5107976;28;20404;-78
2022/12/02 10:20:22;;;;;;;42.53;23.47;;;4.10;99.90;;;;;;5107814;28;20032;-79
2022/12/02 10:23:08;;;;;;;41.37;23.03;;;4.10;99.90;;;;;;5104476;28;20089;-78
2022/12/02 10:25:34;;;;;;;46.58;24.58;;;4.00;99.90;;;;;;5113970;28;20023;-78
2022/12/02 10:28:00;;;;;;;39.17;21.30;;;4.00;99.90;;;;;;5094715;28;20107;-83
2022/12/02 10:30:27;;;;;;;41.53;22.10;;;3.90;99.90;;;;;;5089006;28;20028;-83
2022/12/02 10:33:03;;;;;;;49.27;26.43;;;3.90;99.90;;;;;;5090614;28;20028;-81
2022/12/02 10:35:47;;;;;;;88.43;43.60;;;3.90;99.90;;;;;;5090013;28;20392;-82
2022/12/02 10:38:31;;;;;;;49.77;25.70;;;3.90;99.90;;;;;;5091288;28;20110;-82
2022/12/02 10:41:16;;;;;;;39.20;21.60;;;3.90;99.90;;;;;;5090275;28;20388;-82
2022/12/02 10:43:48;;;;;;;72.37;33.80;;;3.90;99.90;;;;;;5090063;28;20024;-82
2022/12/02 10:46:14;;;;;;;45.13;24.43;;;3.80;99.90;;;;;;5090514;28;20281;-82
2022/12/02 10:48:41;;;;;;;42.53;23.17;;;3.90;99.90;;;;;;5094501;28;20028;-83
2022/12/02 10:51:13;;;;;;;37.87;20.43;;;3.80;99.90;;;;;;5094192;28;20023;-82
2022/12/02 10:53:39;;;;;;;78.10;33.80;;;3.80;99.90;;;;;;5094203;28;20031;-82
2022/12/02 10:56:05;;;;;;;69.87;30.53;;;3.90;99.90;;;;;;5094347;28;20400;-82
2022/12/02 10:58:30;;;;;;;48.47;24.03;;;3.90;99.90;;;;;;5094276;28;20804;-82
2022/12/02 11:00:57;;;;;;;53.70;26.43;;;3.90;99.90;;;;;;5104345;28;20726;-84
2022/12/02 11:03:23;;;;;;;42.40;22.43;;;4.00;99.90;;;;;;5093987;28;20043;-83
2022/12/02 11:05:49;;;;;;;63.80;29.57;;;4.00;99.90;;;;;;5093094;28;20541;-83
2022/12/02 11:08:15;;;;;;;40.87;20.67;;;4.00;99.90;;;;;;5094018;28;20051;-83
2022/12/02 11:10:43;;;;;;;38.80;23.07;;;3.90;99.90;;;;;;5094275;28;20025;-84
2022/12/02 11:13:11;;;;;;;35.13;20.33;;;3.90;99.90;;;;;;5093563;28;20028;-84
2022/12/02 11:15:48;;;;;;;32.77;17.60;;;3.90;99.90;;;;;;5091638;28;20086;-84
2022/12/02 11:18:29;;;;;;;34.03;19.70;;;3.90;99.90;;;;;;5101509;28;20165;-83
2022/12/02 11:21:01;;;;;;;46.93;26.23;;;3.90;99.90;;;;;;5102844;28;20067;-83
2022/12/02 11:23:28;;;;;;;49.90;29.57;;;3.80;99.90;;;;;;5101692;28;20039;-74
2022/12/02 11:25:57;;;;;;;45.93;25.17;;;3.80;99.90;;;;;;5096824;28;20035;-83
2022/12/02 11:28:28;;;;;;;44.90;25.17;;;3.80;99.90;;;;;;5091341;28;20049;-83
2022/12/02 11:31:18;;;;;;;45.97;26.10;;;3.70;99.90;;;;;;5093659;28;20024;-83
2022/12/02 11:33:47;;;;;;;42.70;21.90;;;3.70;99.90;;;;;;5076688;28;20073;-83
2022/12/02 11:36:18;;;;;;;46.17;22.73;;;3.70;99.90;;;;;;5093285;28;20020;-83
2022/12/02 11:38:49;;;;;;;43.10;21.50;;;3.70;99.90;;;;;;5093204;28;20020;-83
2022/12/02 11:41:16;;;;;;;39.83;22.47;;;3.70;99.90;;;;;;5086213;28;20037;-83
2022/12/02 11:44:19;;;;;;;36.10;19.67;;;3.70;99.90;;;;;;5087960;28;20028;-83
2022/12/02 11:46:48;;;;;;;38.10;20.23;;;3.70;99.90;;;;;;5080919;28;20074;-83
2022/12/02 11:49:42;;;;;;;38.70;21.23;;;3.70;99.90;;;;;;5087807;28;20040;-82
2022/12/02 11:52:07;;;;;;;38.37;20.87;;;3.70;99.90;;;;;;5087296;28;20066;-83
2022/12/02 11:54:42;;;;;;;36.43;19.20;;;3.70;99.90;;;;;;5087762;28;20544;-83
2022/12/02 11:57:22;;;;;;;38.83;21.52;;;3.70;99.90;;;;;;5087453;28;20039;-83
2022/12/02 11:59:48;;;;;;;41.93;21.87;;;3.60;99.90;;;;;;5091388;28;20108;-83
2022/12/02 12:02:16;;;;;;;42.03;22.37;;;3.60;99.90;;;;;;5093179;28;20082;-83
2022/12/02 12:04:43;;;;;;;40.57;22.30;;;3.60;99.90;;;;;;5092968;28;20357;-83
2022/12/02 12:07:09;;;;;;;39.80;20.83;;;3.60;99.90;;;;;;5092451;28;20039;-83
2022/12/02 12:09:35;;;;;;;37.43;20.17;;;3.60;99.90;;;;;;5094582;28;20077;-82
2022/12/02 12:12:19;;;;;;;37.17;20.33;;;3.60;99.90;;;;;;5093462;28;20032;-83
2022/12/02 12:15:04;;;;;;;38.07;20.43;;;3.60;99.90;;;;;;5091687;28;20036;-83
2022/12/02 12:17:38;;;;;;;37.45;19.60;;;3.60;99.90;;;;;;5089412;28;20079;-82
2022/12/02 12:20:25;;;;;;;36.35;19.83;;;3.60;99.90;;;;;;5087753;28;20042;-82
2022/12/02 12:22:51;;;;;;;39.20;21.20;;;3.60;99.90;;;;;;5076120;28;20043;-82
2022/12/02 12:25:40;;;;;;;38.03;20.90;;;3.60;99.90;;;;;;5090092;28;20028;-82
2022/12/02 12:28:31;;;;;;;34.97;20.07;;;3.70;99.90;;;;;;5092888;28;20027;-83
2022/12/02 12:30:59;;;;;;;41.10;21.10;;;3.70;99.90;;;;;;5092498;28;20028;-82
2022/12/02 12:33:24;;;;;;;38.27;20.67;;;3.70;99.90;;;;;;5091062;28;20039;-84
2022/12/02 12:35:54;;;;;;;33.37;19.33;;;3.70;99.90;;;;;;5092180;28;20024;-83
2022/12/02 12:38:21;;;;;;;39.60;20.17;;;3.80;99.90;;;;;;5075584;28;20603;-83
2022/12/02 12:40:46;;;;;;;34.80;20.67;;;3.80;99.90;;;;;;5092069;28;20424;-83
2022/12/02 12:43:12;;;;;;;35.43;18.70;;;3.80;99.90;;;;;;5092427;28;20028;-83
2022/12/02 12:45:38;;;;;;;39.40;20.80;;;3.80;99.90;;;;;;5091432;28;20036;-83
2022/12/02 12:48:03;;;;;;;64.97;33.73;;;3.80;99.90;;;;;;5091993;28;20040;-83
2022/12/02 12:50:29;;;;;;;40.03;22.07;;;3.80;99.90;;;;;;5095443;28;20036;-83
2022/12/02 12:52:54;;;;;;;36.67;20.70;;;3.80;99.90;;;;;;5092087;28;20468;-83